Time;durP1;ratioP1;P1;durP2;ratioP2;P2;SDS_P1;SDS_P2;PMS_P1;PMS_P2;Temp;Humidity;BMP_temperature;BMP_pressure;BME280_temperature;BME280_humidity;BME280_pressure;Samples;Min_cycle;Max_cycle;Signal;HPM_P1;HPM_P2
2023/08/26 00:02:24;;;;;;;14.40;7.55;;;;;;;;;;5054043;28;20081;-67
2023/08/26 00:04:49;;;;;;;13.45;6.80;;;;;;;;;;5068552;28;20426;-66
2023/08/26 00:07:15;;;;;;;13.45;6.90;;;;;;;;;;5068479;28;20020;-69
2023/08/26 00:09:40;;;;;;;12.10;6.88;;;;;;;;;;5068640;28;20024;-68
2023/08/26 00:12:05;;;;;;;20.52;7.72;;;;;;;;;;5066528;28;20107;-64
2023/08/26 00:14:31;;;;;;;13.93;7.10;;;;;;;;;;5054222;28;20025;-67
2023/08/26 00:16:56;;;;;;;15.27;7.75;;;;;;;;;;5073247;28;20020;-68
2023/08/26 00:19:21;;;;;;;14.00;7.43;;;;;;;;;;5072416;28;20017;-69
2023/08/26 00:21:47;;;;;;;11.90;7.70;;;;;;;;;;5066618;28;20202;-68
2023/08/26 00:24:13;;;;;;;11.57;6.70;;;;;;;;;;5063597;28;20324;-67
2023/08/26 00:26:38;;;;;;;14.38;6.25;;;;;;;;;;5066959;28;20039;-65
2023/08/26 00:29:03;;;;;;;11.02;6.38;;;;;;;;;;5067600;28;20024;-68
2023/08/26 00:31:28;;;;;;;11.75;5.88;;;;;;;;;;5067207;28;20119;-68
2023/08/26 00:33:54;;;;;;;14.52;6.70;;;;;;;;;;5066544;28;20067;-68
2023/08/26 00:36:19;;;;;;;12.02;6.28;;;;;;;;;;5079241;22;20073;-73
2023/08/26 00:38:44;;;;;;;9.55;5.90;;;;;;;;;;5046588;28;20029;-67
2023/08/26 00:41:10;;;;;;;9.00;5.55;;;;;;;;;;5049052;28;20029;-70
2023/08/26 00:43:37;;;;;;;13.17;6.10;;;;;;;;;;5047655;28;20047;-74
2023/08/26 00:46:03;;;;;;;12.15;5.65;;;;;;;;;;5034669;28;20254;-71
2023/08/26 00:48:28;;;;;;;9.43;5.85;;;;;;;;;;5048632;28;20167;-71
2023/08/26 00:50:54;;;;;;;10.52;6.60;;;;;;;;;;5047572;28;20117;-70
2023/08/26 00:53:20;;;;;;;16.42;5.40;;;;;;;;;;5040653;28;20014;-71
2023/08/26 00:55:46;;;;;;;15.30;5.93;;;;;;;;;;5041733;28;20043;-71
2023/08/26 00:58:11;;;;;;;10.38;5.30;;;;;;;;;;5046987;28;20025;-70
2023/08/26 01:00:39;;;;;;;16.88;5.95;;;;;;;;;;5049085;28;20024;-69
2023/08/26 01:03:04;;;;;;;11.45;5.68;;;;;;;;;;5047436;28;20391;-75
2023/08/26 01:05:30;;;;;;;10.60;5.80;;;;;;;;;;5047843;28;20017;-72
2023/08/26 01:07:55;;;;;;;11.15;5.65;;;;;;;;;;5047835;28;20028;-72
2023/08/26 01:10:23;;;;;;;12.15;5.60;;;;;;;;;;5057476;28;20028;-77
2023/08/26 01:12:55;;;;;;;10.87;5.03;;;;;;;;;;5052029;28;20017;-70
2023/08/26 01:15:20;;;;;;;15.80;6.72;;;;;;;;;;5034207;28;20707;-72
2023/08/26 01:17:46;;;;;;;16.13;5.70;;;;;;;;;;5048803;28;20021;-71
2023/08/26 01:20:11;;;;;;;8.45;5.55;;;;;;;;;;5059939;28;20051;-79
2023/08/26 01:22:37;;;;;;;13.02;5.63;;;;;;;;;;5046315;28;20012;-72
2023/08/26 01:25:03;;;;;;;9.45;4.72;;;;;;;;;;5048584;28;20024;-73
2023/08/26 01:27:28;;;;;;;10.77;4.53;;;;;;;;;;5048883;28;20021;-72
2023/08/26 01:29:55;;;;;;;9.23;3.88;;;;;;;;;;5048216;28;20021;-75
2023/08/26 01:32:37;;;;;;;11.32;4.63;;;;;;;;;;5046503;28;20028;-71
2023/08/26 01:35:03;;;;;;;8.23;4.72;;;;;;;;;;5048445;28;20029;-72
2023/08/26 01:37:29;;;;;;;11.52;4.50;;;;;;;;;;5047900;28;20187;-73
2023/08/26 01:39:57;;;;;;;9.23;4.22;;;;;;;;;;5049501;28;20096;-74
2023/08/26 01:42:23;;;;;;;8.50;4.20;;;;;;;;;;5048599;28;20033;-72
2023/08/26 01:44:48;;;;;;;11.48;4.72;;;;;;;;;;5049259;28;20526;-76
2023/08/26 01:47:15;;;;;;;9.25;4.63;;;;;;;;;;5060640;28;20025;-73
2023/08/26 01:49:40;;;;;;;8.95;4.40;;;;;;;;;;5058277;28;20079;-72
2023/08/26 01:52:05;;;;;;;7.97;4.00;;;;;;;;;;5048036;28;20483;-72
2023/08/26 01:54:30;;;;;;;8.23;5.13;;;;;;;;;;5044379;28;20017;-68
2023/08/26 01:56:56;;;;;;;9.82;4.30;;;;;;;;;;5045269;28;20016;-72
2023/08/26 01:59:21;;;;;;;8.25;4.63;;;;;;;;;;5058672;28;20016;-70
2023/08/26 02:01:46;;;;;;;9.50;4.38;;;;;;;;;;5064770;28;20029;-68
2023/08/26 02:04:11;;;;;;;8.63;4.32;;;;;;;;;;5046832;28;20044;-72
2023/08/26 02:06:40;;;;;;;8.98;4.45;;;;;;;;;;5049702;28;20025;-72
2023/08/26 02:09:05;;;;;;;10.05;4.13;;;;;;;;;;5058126;28;20700;-71
2023/08/26 02:11:30;;;;;;;11.88;4.75;;;;;;;;;;5063559;28;20036;-68
2023/08/26 02:13:59;;;;;;;8.10;4.30;;;;;;;;;;5045196;28;20028;-74
2023/08/26 02:16:24;;;;;;;7.38;4.18;;;;;;;;;;5036755;28;20024;-72
2023/08/26 02:18:49;;;;;;;11.50;4.25;;;;;;;;;;5055472;28;20024;-72
2023/08/26 02:21:15;;;;;;;13.38;5.00;;;;;;;;;;5052450;28;20021;-73
2023/08/26 02:23:40;;;;;;;10.20;4.63;;;;;;;;;;5056301;28;20482;-72
2023/08/26 02:26:05;;;;;;;9.55;4.55;;;;;;;;;;5052502;28;20017;-71
2023/08/26 02:28:31;;;;;;;6.82;3.90;;;;;;;;;;5030593;28;20028;-73
2023/08/26 02:30:56;;;;;;;11.45;4.45;;;;;;;;;;5047296;28;20025;-68
2023/08/26 02:33:22;;;;;;;8.05;4.28;;;;;;;;;;5046386;28;20021;-70
2023/08/26 02:35:47;;;;;;;10.30;4.57;;;;;;;;;;5050551;28;20017;-70
2023/08/26 02:38:13;;;;;;;9.93;5.53;;;;;;;;;;5059290;28;20031;-72
2023/08/26 02:40:38;;;;;;;8.18;4.72;;;;;;;;;;5068332;28;20020;-69
2023/08/26 02:43:04;;;;;;;11.63;4.05;;;;;;;;;;5057414;28;20528;-72
2023/08/26 02:45:30;;;;;;;13.65;4.40;;;;;;;;;;5051697;28;20036;-70
2023/08/26 02:47:57;;;;;;;8.85;4.85;;;;;;;;;;5050846;28;20017;-72
2023/08/26 02:50:24;;;;;;;9.95;4.15;;;;;;;;;;5051645;28;20031;-73
2023/08/26 02:52:49;;;;;;;9.25;3.97;;;;;;;;;;5049442;28;20394;-71
2023/08/26 02:55:17;;;;;;;8.95;3.70;;;;;;;;;;5044036;28;20021;-71
2023/08/26 02:57:42;;;;;;;10.43;3.75;;;;;;;;;;5051693;28;20013;-72
2023/08/26 03:00:08;;;;;;;6.82;3.30;;;;;;;;;;5066170;28;20092;-71
2023/08/26 03:02:33;;;;;;;11.77;3.63;;;;;;;;;;5060200;28;20048;-71
2023/08/26 03:04:58;;;;;;;7.88;3.50;;;;;;;;;;5057139;28;20445;-71
2023/08/26 03:07:24;;;;;;;7.53;3.80;;;;;;;;;;5055565;28;20025;-73
2023/08/26 03:09:49;;;;;;;7.70;3.92;;;;;;;;;;5052133;28;20028;-69
2023/08/26 03:12:14;;;;;;;11.33;4.00;;;;;;;;;;5069836;28;20016;-73
2023/08/26 03:14:40;;;;;;;12.88;3.97;;;;;;;;;;5037239;28;20283;-73
2023/08/26 03:17:05;;;;;;;9.85;3.58;;;;;;;;;;5050903;28;20101;-72
2023/08/26 03:19:31;;;;;;;15.00;3.80;;;;;;;;;;5050398;28;20459;-72
2023/08/26 03:21:56;;;;;;;10.10;4.38;;;;;;;;;;5051163;28;20017;-72
2023/08/26 03:24:21;;;;;;;9.52;3.67;;;;;;;;;;5050433;28;20020;-72
2023/08/26 03:26:47;;;;;;;13.20;3.50;;;;;;;;;;5050861;28;20418;-73
2023/08/26 03:29:12;;;;;;;7.70;3.70;;;;;;;;;;5050762;28;20047;-72
2023/08/26 03:31:38;;;;;;;8.73;3.45;;;;;;;;;;5051165;28;20024;-75
2023/08/26 03:34:06;;;;;;;8.32;4.07;;;;;;;;;;5049149;28;20022;-75
2023/08/26 03:36:31;;;;;;;9.00;3.10;;;;;;;;;;5050914;28;20399;-75
2023/08/26 03:38:56;;;;;;;10.95;3.17;;;;;;;;;;5050810;28;20021;-72
2023/08/26 03:41:22;;;;;;;5.18;3.00;;;;;;;;;;5051409;28;20021;-74
2023/08/26 03:43:47;;;;;;;8.05;3.33;;;;;;;;;;5050667;28;20018;-71
2023/08/26 03:46:13;;;;;;;8.02;3.42;;;;;;;;;;5050906;28;20020;-71
2023/08/26 03:48:38;;;;;;;12.23;3.85;;;;;;;;;;5049014;28;20013;-74
2023/08/26 03:51:03;;;;;;;8.98;3.80;;;;;;;;;;5064184;28;20061;-68
2023/08/26 03:53:28;;;;;;;13.30;3.33;;;;;;;;;;5049332;28;20041;-71
2023/08/26 03:55:54;;;;;;;7.85;3.28;;;;;;;;;;5050428;28;20117;-70
2023/08/26 03:58:19;;;;;;;7.65;3.33;;;;;;;;;;5064799;28;20103;-72
2023/08/26 04:00:44;;;;;;;7.55;3.13;;;;;;;;;;5051752;28;20017;-71
2023/08/26 04:03:10;;;;;;;9.10;3.53;;;;;;;;;;5050702;28;20021;-75
2023/08/26 04:05:35;;;;;;;8.88;3.40;;;;;;;;;;5051038;28;20531;-71
2023/08/26 04:08:01;;;;;;;8.60;3.67;;;;;;;;;;5050047;28;20025;-76
2023/08/26 04:10:26;;;;;;;8.57;3.85;;;;;;;;;;5051340;28;20025;-70
2023/08/26 04:12:51;;;;;;;7.13;3.40;;;;;;;;;;5056717;28;20104;-71
2023/08/26 04:15:17;;;;;;;6.97;4.05;;;;;;;;;;5041620;28;20024;-72
2023/08/26 04:17:42;;;;;;;8.23;4.10;;;;;;;;;;5047979;28;20053;-68
2023/08/26 04:20:08;;;;;;;8.48;4.00;;;;;;;;;;5050550;28;20024;-75
2023/08/26 04:22:33;;;;;;;16.85;4.28;;;;;;;;;;5050231;28;20028;-70
2023/08/26 04:24:58;;;;;;;8.05;3.83;;;;;;;;;;5069912;28;20027;-72
2023/08/26 04:27:24;;;;;;;9.43;3.60;;;;;;;;;;5056681;28;20025;-75
2023/08/26 04:29:49;;;;;;;10.32;3.78;;;;;;;;;;5050353;28;20117;-72
2023/08/26 04:32:14;;;;;;;10.13;3.75;;;;;;;;;;5049296;28;20020;-71
2023/08/26 04:34:39;;;;;;;5.28;3.03;;;;;;;;;;5049694;28;20064;-73
2023/08/26 04:37:05;;;;;;;9.10;3.22;;;;;;;;;;5049644;28;20529;-73
2023/08/26 04:39:30;;;;;;;6.75;3.58;;;;;;;;;;5047330;28;20012;-72
2023/08/26 04:41:56;;;;;;;11.57;3.90;;;;;;;;;;5047488;28;20017;-72
2023/08/26 04:44:21;;;;;;;7.35;2.92;;;;;;;;;;5049217;28;20467;-69
2023/08/26 04:46:46;;;;;;;5.75;3.00;;;;;;;;;;5062334;28;20025;-70
2023/08/26 04:49:11;;;;;;;5.72;2.63;;;;;;;;;;5050866;28;20052;-69
2023/08/26 04:51:37;;;;;;;7.55;2.72;;;;;;;;;;5050081;28;20055;-75
2023/08/26 04:54:03;;;;;;;9.18;2.65;;;;;;;;;;5041276;28;20086;-73
2023/08/26 04:56:28;;;;;;;4.78;2.50;;;;;;;;;;5058052;28;20021;-76
2023/08/26 04:58:53;;;;;;;6.53;3.33;;;;;;;;;;5047680;28;20021;-72
2023/08/26 05:01:18;;;;;;;9.18;2.88;;;;;;;;;;5062543;28;20017;-73
2023/08/26 05:03:44;;;;;;;7.03;2.40;;;;;;;;;;5061862;28;20503;-70
2023/08/26 05:06:09;;;;;;;5.18;2.38;;;;;;;;;;5048856;28;20545;-73
2023/08/26 05:08:34;;;;;;;6.88;2.40;;;;;;;;;;5048405;28;20052;-67
2023/08/26 05:10:59;;;;;;;6.68;2.35;;;;;;;;;;5049310;28;20044;-70
2023/08/26 05:13:25;;;;;;;11.45;2.30;;;;;;;;;;5047495;28;20676;-73
2023/08/26 05:15:50;;;;;;;9.60;2.15;;;;;;;;;;5033917;28;20467;-75
2023/08/26 05:18:16;;;;;;;8.38;2.13;;;;;;;;;;5041517;28;20402;-72
2023/08/26 05:20:44;;;;;;;4.95;2.00;;;;;;;;;;5043396;28;20487;-71
2023/08/26 05:23:09;;;;;;;;;;;;;;;;;;5043227;28;20029;-70
2023/08/26 05:25:35;;;;;;;5.95;1.98;;;;;;;;;;5038786;28;19955;-72
2023/08/26 05:28:00;;;;;;;4.80;2.10;;;;;;;;;;5038342;28;20029;-73
2023/08/26 05:30:25;;;;;;;6.28;2.22;;;;;;;;;;5045230;28;20537;-73
2023/08/26 05:32:51;;;;;;;8.48;2.88;;;;;;;;;;5062430;28;20512;-74
2023/08/26 05:35:16;;;;;;;4.80;2.10;;;;;;;;;;5047012;28;20076;-72
2023/08/26 05:37:45;;;;;;;7.05;2.30;;;;;;;;;;5042587;28;20036;-75
2023/08/26 05:40:10;;;;;;;10.77;2.42;;;;;;;;;;5048220;28;20059;-72
2023/08/26 05:42:35;;;;;;;11.60;3.33;;;;;;;;;;5048683;28;20430;-71
2023/08/26 05:45:01;;;;;;;9.48;2.00;;;;;;;;;;5055183;28;20021;-72
2023/08/26 05:47:26;;;;;;;6.80;2.40;;;;;;;;;;5054740;28;20025;-76
2023/08/26 05:49:51;;;;;;;7.30;2.40;;;;;;;;;;5047667;28;20021;-71
2023/08/26 05:52:16;;;;;;;6.85;2.50;;;;;;;;;;5048154;28;20021;-71
2023/08/26 05:54:43;;;;;;;4.72;2.28;;;;;;;;;;5046947;28;20029;-73
2023/08/26 05:57:10;;;;;;;7.38;2.20;;;;;;;;;;5052867;28;20021;-72
2023/08/26 05:59:35;;;;;;;6.57;2.35;;;;;;;;;;5046204;28;20029;-72
2023/08/26 06:02:04;;;;;;;8.85;2.50;;;;;;;;;;5041301;28;20063;-72
2023/08/26 06:04:29;;;;;;;10.45;2.50;;;;;;;;;;5045554;28;20541;-70
2023/08/26 06:06:54;;;;;;;8.15;3.15;;;;;;;;;;5045759;28;20059;-75
2023/08/26 06:09:20;;;;;;;7.25;2.25;;;;;;;;;;5048725;28;20112;-73
2023/08/26 06:11:45;;;;;;;7.20;2.45;;;;;;;;;;5046905;28;20028;-72
2023/08/26 06:14:10;;;;;;;9.70;2.90;;;;;;;;;;5039574;28;20028;-71
2023/08/26 06:16:35;;;;;;;5.65;3.05;;;;;;;;;;5044520;28;20158;-69
2023/08/26 06:19:01;;;;;;;6.63;3.03;;;;;;;;;;5049310;28;20092;-75
2023/08/26 06:21:26;;;;;;;6.40;3.10;;;;;;;;;;5041062;28;20250;-72
2023/08/26 06:23:51;;;;;;;7.30;2.67;;;;;;;;;;5048902;28;20108;-72
2023/08/26 06:26:16;;;;;;;7.47;2.90;;;;;;;;;;5043900;28;20053;-72
2023/08/26 06:28:41;;;;;;;6.65;2.58;;;;;;;;;;5045684;28;20571;-70
2023/08/26 06:31:07;;;;;;;8.90;3.25;;;;;;;;;;5038775;28;20033;-72
2023/08/26 06:33:32;;;;;;;9.20;3.10;;;;;;;;;;5048178;28;20028;-68
2023/08/26 06:35:58;;;;;;;8.57;3.10;;;;;;;;;;5046551;28;20120;-72
2023/08/26 06:38:23;;;;;;;7.28;2.72;;;;;;;;;;5034605;22;20141;-68
2023/08/26 06:40:55;;;;;;;7.53;2.90;;;;;;;;;;5009337;28;20045;-67
2023/08/26 06:43:20;;;;;;;6.07;2.80;;;;;;;;;;5010543;28;20017;-69
2023/08/26 06:45:45;;;;;;;13.25;3.33;;;;;;;;;;4998337;28;20411;-70
2023/08/26 06:48:11;;;;;;;7.63;3.05;;;;;;;;;;5015641;28;20629;-69
2023/08/26 06:50:36;;;;;;;9.48;3.33;;;;;;;;;;5000744;28;20034;-68
2023/08/26 06:53:01;;;;;;;6.47;3.42;;;;;;;;;;4996993;28;20392;-69
2023/08/26 06:55:26;;;;;;;10.80;3.50;;;;;;;;;;5017727;28;20092;-72
2023/08/26 06:57:52;;;;;;;9.75;3.78;;;;;;;;;;5014288;28;20030;-69
2023/08/26 07:00:18;;;;;;;8.93;3.67;;;;;;;;;;4990937;28;20017;-66
2023/08/26 07:02:43;;;;;;;7.68;3.33;;;;;;;;;;5012444;28;20018;-69
2023/08/26 07:05:08;;;;;;;7.07;3.10;;;;;;;;;;4997124;28;20363;-68
2023/08/26 07:07:36;;;;;;;7.15;2.88;;;;;;;;;;5018672;28;20036;-69
2023/08/26 07:10:01;;;;;;;9.32;2.78;;;;;;;;;;5016283;28;20080;-70
2023/08/26 07:12:27;;;;;;;6.78;2.30;;;;;;;;;;5016034;28;20108;-65
2023/08/26 07:14:52;;;;;;;5.30;2.10;;;;;;;;;;5015186;28;20021;-70
2023/08/26 07:17:18;;;;;;;5.90;1.70;;;;;;;;;;5017853;28;20029;-69
2023/08/26 07:19:43;;;;;;;2.55;1.50;;;;;;;;;;5012235;28;20021;-69
2023/08/26 07:22:08;;;;;;;2.97;1.30;;;;;;;;;;5011951;28;20021;-69
2023/08/26 07:24:33;;;;;;;5.10;1.48;;;;;;;;;;5019713;28;20025;-69
2023/08/26 07:26:59;;;;;;;3.35;1.30;;;;;;;;;;5010532;28;20723;-71
2023/08/26 07:29:24;;;;;;;4.10;1.10;;;;;;;;;;5010521;28;20527;-69
2023/08/26 07:31:49;;;;;;;3.25;1.27;;;;;;;;;;5018876;28;20444;-72
2023/08/26 07:34:15;;;;;;;4.68;1.42;;;;;;;;;;5011284;28;20400;-72
2023/08/26 07:36:40;;;;;;;2.63;1.20;;;;;;;;;;5010699;28;20018;-69
2023/08/26 07:39:06;;;;;;;2.80;1.30;;;;;;;;;;5011221;28;20014;-69
2023/08/26 07:41:31;;;;;;;3.05;1.35;;;;;;;;;;5010223;28;20534;-69
2023/08/26 07:43:56;;;;;;;3.00;1.30;;;;;;;;;;5015630;28;20135;-68
2023/08/26 07:46:22;;;;;;;5.20;1.73;;;;;;;;;;5013701;28;20208;-70
2023/08/26 07:48:50;;;;;;;3.15;1.35;;;;;;;;;;5014785;28;20513;-69
2023/08/26 07:51:16;;;;;;;7.25;1.70;;;;;;;;;;5014976;28;20029;-67
2023/08/26 07:53:41;;;;;;;2.28;1.58;;;;;;;;;;5009609;28;20388;-68
2023/08/26 07:56:08;;;;;;;3.78;1.63;;;;;;;;;;5010453;28;20037;-70
2023/08/26 07:58:33;;;;;;;8.50;2.50;;;;;;;;;;5018206;28;20030;-71
2023/08/26 08:00:59;;;;;;;3.63;1.80;;;;;;;;;;5010845;28;20087;-66
2023/08/26 08:03:24;;;;;;;6.43;2.40;;;;;;;;;;5007367;28;20070;-68
2023/08/26 08:05:49;;;;;;;7.10;2.05;;;;;;;;;;5009530;28;20036;-71
2023/08/26 08:08:14;;;;;;;6.53;2.25;;;;;;;;;;5009680;28;20083;-71
2023/08/26 08:10:40;;;;;;;4.55;2.20;;;;;;;;;;5010147;28;20471;-70
2023/08/26 08:13:05;;;;;;;7.50;3.17;;;;;;;;;;5008997;28;20055;-67
2023/08/26 08:15:31;;;;;;;7.40;3.50;;;;;;;;;;5008602;28;20433;-68
2023/08/26 08:17:56;;;;;;;13.13;4.07;;;;;;;;;;5008107;28;20021;-66
2023/08/26 08:20:21;;;;;;;8.82;3.58;;;;;;;;;;5008393;28;20060;-69
2023/08/26 08:22:47;;;;;;;10.45;4.45;;;;;;;;;;5008374;28;20029;-68
2023/08/26 08:25:12;;;;;;;9.25;4.20;;;;;;;;;;5008251;28;20029;-68
2023/08/26 08:27:38;;;;;;;10.27;4.85;;;;;;;;;;5011108;28;20411;-70
2023/08/26 08:30:04;;;;;;;11.43;4.82;;;;;;;;;;4999443;28;20104;-68
2023/08/26 08:32:30;;;;;;;11.35;4.82;;;;;;;;;;5008628;28;20105;-67
2023/08/26 08:34:55;;;;;;;17.23;4.65;;;;;;;;;;5009736;28;20028;-67
2023/08/26 08:37:21;;;;;;;12.05;5.30;;;;;;;;;;5009736;28;20018;-68
2023/08/26 08:39:46;;;;;;;11.75;5.30;;;;;;;;;;5010134;28;20080;-69
2023/08/26 08:42:15;;;;;;;9.95;4.90;;;;;;;;;;5010907;28;20506;-69
2023/08/26 08:44:41;;;;;;;11.57;5.50;;;;;;;;;;5024120;28;20021;-68
2023/08/26 08:47:06;;;;;;;10.20;5.60;;;;;;;;;;5008815;28;20056;-67
2023/08/26 08:49:36;;;;;;;13.55;5.15;;;;;;;;;;5009698;28;20508;-67
2023/08/26 08:52:04;;;;;;;13.88;4.80;;;;;;;;;;5009578;28;20025;-68
2023/08/26 08:54:30;;;;;;;12.30;5.38;;;;;;;;;;4990820;28;20368;-69
2023/08/26 08:56:56;;;;;;;9.75;5.50;;;;;;;;;;5012376;28;20009;-66
2023/08/26 08:59:22;;;;;;;13.27;4.97;;;;;;;;;;5016082;28;20384;-67
2023/08/26 09:01:47;;;;;;;10.85;4.68;;;;;;;;;;5008430;28;20313;-67
2023/08/26 09:04:13;;;;;;;10.10;4.60;;;;;;;;;;5007573;28;20025;-69
2023/08/26 09:06:38;;;;;;;10.40;4.40;;;;;;;;;;5008591;28;20113;-66
2023/08/26 09:09:10;;;;;;;7.75;4.13;;;;;;;;;;5008339;28;20396;-68
2023/08/26 09:11:39;;;;;;;9.95;3.90;;;;;;;;;;5006242;28;20029;-67
2023/08/26 09:14:04;;;;;;;;;;;;;;;;;;5006707;28;20337;-68
2023/08/26 09:16:34;;;;;;;10.57;4.88;;;;;;;;;;5011668;28;19905;-66
2023/08/26 09:18:59;;;;;;;15.57;4.07;;;;;;;;;;4991316;28;20159;-66
2023/08/26 09:21:25;;;;;;;10.55;3.83;;;;;;;;;;5008260;28;20029;-69
2023/08/26 09:23:50;;;;;;;9.88;4.15;;;;;;;;;;5006397;28;20507;-68
2023/08/26 09:26:16;;;;;;;11.68;3.53;;;;;;;;;;5004766;28;20030;-69
2023/08/26 09:28:47;;;;;;;6.75;3.25;;;;;;;;;;5008181;28;20010;-69
2023/08/26 09:31:13;;;;;;;11.82;3.58;;;;;;;;;;4994679;28;20018;-66
2023/08/26 09:33:38;;;;;;;6.35;3.10;;;;;;;;;;5005185;28;20025;-68
2023/08/26 09:36:04;;;;;;;6.55;2.60;;;;;;;;;;5007992;28;20022;-72
2023/08/26 09:38:39;;;;;;;10.05;2.67;;;;;;;;;;5007618;28;20507;-67
2023/08/26 09:41:04;;;;;;;9.63;2.80;;;;;;;;;;5007831;28;20490;-68
2023/08/26 09:43:30;;;;;;;6.77;2.67;;;;;;;;;;5008532;28;20025;-70
2023/08/26 09:45:56;;;;;;;9.63;2.33;;;;;;;;;;5015475;28;20266;-67
2023/08/26 09:48:21;;;;;;;9.00;2.83;;;;;;;;;;5006638;28;20101;-66
2023/08/26 09:50:47;;;;;;;10.13;2.55;;;;;;;;;;5009270;28;20344;-70
2023/08/26 09:53:12;;;;;;;6.38;2.53;;;;;;;;;;5011594;28;20033;-67
2023/08/26 09:55:41;;;;;;;6.22;2.28;;;;;;;;;;5011656;28;20048;-65
2023/08/26 09:58:06;;;;;;;15.60;3.90;;;;;;;;;;5023741;28;20187;-67
2023/08/26 10:00:31;;;;;;;7.68;2.50;;;;;;;;;;5011906;28;20105;-66
2023/08/26 10:03:03;;;;;;;4.80;2.38;;;;;;;;;;5010783;28;20037;-69
2023/08/26 10:05:32;;;;;;;6.05;2.40;;;;;;;;;;5000062;28;20049;-66
2023/08/26 10:08:02;;;;;;;8.48;2.40;;;;;;;;;;5012288;28;20437;-68
2023/08/26 10:10:32;;;;;;;9.90;2.95;;;;;;;;;;5011214;28;20026;-69
2023/08/26 10:13:03;;;;;;;13.52;2.42;;;;;;;;;;5010602;28;20564;-68
2023/08/26 10:15:29;;;;;;;6.80;2.60;;;;;;;;;;5003221;28;20030;-67
2023/08/26 10:17:56;;;;;;;13.05;2.38;;;;;;;;;;5012427;28;20021;-68
2023/08/26 10:20:22;;;;;;;6.28;2.55;;;;;;;;;;5011181;28;20105;-65
2023/08/26 10:22:47;;;;;;;7.93;2.40;;;;;;;;;;5011140;28;20100;-67
2023/08/26 10:25:13;;;;;;;12.85;2.40;;;;;;;;;;5010444;28;20036;-67
2023/08/26 10:27:38;;;;;;;8.70;2.83;;;;;;;;;;5010707;28;20032;-69
2023/08/26 10:30:05;;;;;;;9.30;3.13;;;;;;;;;;5010041;28;20184;-67
2023/08/26 10:32:30;;;;;;;9.00;2.47;;;;;;;;;;5009533;28;20110;-70
2023/08/26 10:34:57;;;;;;;9.82;3.22;;;;;;;;;;5009773;28;20097;-67
2023/08/26 10:37:29;;;;;;;10.18;3.10;;;;;;;;;;5010634;28;20026;-67
2023/08/26 10:39:55;;;;;;;12.10;3.33;;;;;;;;;;5010525;28;20017;-65
2023/08/26 10:42:21;;;;;;;11.63;3.50;;;;;;;;;;5006379;28;20069;-68
2023/08/26 10:44:47;;;;;;;12.48;3.03;;;;;;;;;;5027930;28;20041;-68
2023/08/26 10:47:32;;;;;;;8.07;2.80;;;;;;;;;;5010591;28;20029;-71
2023/08/26 10:50:25;;;;;;;7.95;2.80;;;;;;;;;;5010715;28;20060;-68
2023/08/26 10:52:52;;;;;;;6.57;2.28;;;;;;;;;;5007634;28;20092;-68
2023/08/26 10:55:20;;;;;;;14.23;3.13;;;;;;;;;;5009612;28;20539;-68
2023/08/26 10:58:01;;;;;;;9.13;2.80;;;;;;;;;;5019987;28;20142;-67
2023/08/26 11:00:26;;;;;;;8.20;2.40;;;;;;;;;;4996460;28;20371;-67
2023/08/26 11:02:51;;;;;;;6.43;3.25;;;;;;;;;;4990265;28;20033;-64
2023/08/26 11:05:17;;;;;;;6.10;2.65;;;;;;;;;;5008877;28;20329;-66
2023/08/26 11:07:43;;;;;;;12.82;2.80;;;;;;;;;;5009848;28;20033;-67
2023/08/26 11:10:08;;;;;;;5.65;2.78;;;;;;;;;;5010106;28;20128;-71
2023/08/26 11:12:33;;;;;;;5.70;3.03;;;;;;;;;;5008419;28;20032;-65
2023/08/26 11:15:05;;;;;;;6.60;2.57;;;;;;;;;;5012170;28;20442;-69
2023/08/26 11:17:31;;;;;;;7.15;2.35;;;;;;;;;;5011887;28;20251;-68
2023/08/26 11:19:56;;;;;;;6.65;2.05;;;;;;;;;;5010755;28;20018;-68
2023/08/26 11:22:25;;;;;;;11.00;2.35;;;;;;;;;;5010162;28;20078;-68
2023/08/26 11:24:50;;;;;;;7.75;2.33;;;;;;;;;;5009185;28;20018;-69
2023/08/26 11:27:16;;;;;;;7.95;1.75;;;;;;;;;;5010058;28;20053;-69
2023/08/26 11:29:41;;;;;;;8.70;2.00;;;;;;;;;;5003720;28;20099;-69
2023/08/26 11:32:06;;;;;;;6.88;2.50;;;;;;;;;;5003026;28;20030;-67
2023/08/26 11:34:31;;;;;;;7.28;2.80;;;;;;;;;;5009398;28;20034;-68
2023/08/26 11:36:57;;;;;;;5.70;1.95;;;;;;;;;;5009342;28;20403;-68
2023/08/26 11:39:22;;;;;;;6.00;2.20;;;;;;;;;;5009722;28;20026;-69
2023/08/26 11:41:47;;;;;;;5.68;2.30;;;;;;;;;;5009053;28;20091;-71
2023/08/26 11:44:13;;;;;;;6.53;2.63;;;;;;;;;;5009304;28;20022;-67
2023/08/26 11:46:39;;;;;;;10.27;2.20;;;;;;;;;;5009128;28;20021;-68
2023/08/26 11:49:04;;;;;;;5.95;2.45;;;;;;;;;;5008429;28;20060;-68
2023/08/26 11:51:29;;;;;;;6.60;2.55;;;;;;;;;;5010151;28;20106;-63
2023/08/26 11:53:55;;;;;;;7.93;2.80;;;;;;;;;;5008830;28;20021;-69
2023/08/26 11:56:20;;;;;;;6.22;2.10;;;;;;;;;;5009534;28;20287;-67
2023/08/26 11:58:45;;;;;;;9.48;2.78;;;;;;;;;;5021691;28;20474;-68
2023/08/26 12:01:12;;;;;;;6.82;2.42;;;;;;;;;;5009076;28;20064;-68
2023/08/26 12:03:41;;;;;;;6.55;2.50;;;;;;;;;;5007062;28;20123;-69
2023/08/26 12:06:07;;;;;;;13.95;2.83;;;;;;;;;;5009687;28;20022;-71
2023/08/26 12:08:33;;;;;;;8.60;2.05;;;;;;;;;;4991658;28;20079;-66
2023/08/26 12:10:59;;;;;;;5.60;2.20;;;;;;;;;;5009531;28;20095;-71
2023/08/26 12:13:35;;;;;;;7.72;2.63;;;;;;;;;;4992840;28;20029;-70
2023/08/26 12:16:00;;;;;;;9.55;2.45;;;;;;;;;;5006465;28;20014;-64
2023/08/26 12:18:26;;;;;;;6.53;2.17;;;;;;;;;;5008379;28;20559;-68
2023/08/26 12:20:54;;;;;;;5.75;2.05;;;;;;;;;;5009370;28;20014;-69
2023/08/26 12:23:21;;;;;;;7.00;2.22;;;;;;;;;;5009549;28;20010;-69
2023/08/26 12:25:46;;;;;;;5.45;2.35;;;;;;;;;;5008351;28;20018;-69
2023/08/26 12:28:17;;;;;;;9.60;2.17;;;;;;;;;;5009372;28;20163;-67
2023/08/26 12:30:43;;;;;;;6.57;2.17;;;;;;;;;;4996088;28;20088;-67
2023/08/26 12:33:09;;;;;;;6.32;2.03;;;;;;;;;;5008258;28;20096;-70
2023/08/26 12:35:37;;;;;;;4.85;2.17;;;;;;;;;;5008453;28;20061;-65
2023/08/26 12:38:03;;;;;;;5.40;2.15;;;;;;;;;;5009990;28;20021;-65
2023/08/26 12:40:32;;;;;;;9.32;2.10;;;;;;;;;;5008414;28;20441;-69
2023/08/26 12:42:58;;;;;;;5.15;1.60;;;;;;;;;;5007267;28;20094;-67
2023/08/26 12:45:23;;;;;;;5.43;2.03;;;;;;;;;;5019046;28;20428;-66
2023/08/26 12:47:48;;;;;;;5.65;1.98;;;;;;;;;;5007419;28;20105;-68
2023/08/26 12:50:13;;;;;;;7.47;1.50;;;;;;;;;;5008962;28;20022;-68
2023/08/26 12:52:39;;;;;;;4.80;1.90;;;;;;;;;;5008820;28;20116;-69
2023/08/26 12:55:04;;;;;;;5.60;1.60;;;;;;;;;;5008276;28;20117;-68
2023/08/26 12:57:30;;;;;;;5.55;1.92;;;;;;;;;;5016426;28;20435;-67
2023/08/26 12:59:56;;;;;;;6.93;1.60;;;;;;;;;;5010032;28;20087;-69
2023/08/26 13:02:21;;;;;;;4.70;1.60;;;;;;;;;;5007158;28;20166;-67
2023/08/26 13:04:46;;;;;;;7.07;1.98;;;;;;;;;;5007235;28;20247;-68
2023/08/26 13:07:12;;;;;;;5.73;1.87;;;;;;;;;;5008106;28;20026;-64
2023/08/26 13:09:37;;;;;;;5.07;1.52;;;;;;;;;;5008247;28;20604;-67
2023/08/26 13:12:03;;;;;;;4.97;2.85;;;;;;;;;;5007657;28;20030;-67
2023/08/26 13:14:28;;;;;;;6.60;2.20;;;;;;;;;;5006872;28;21976;-67
2023/08/26 13:16:54;;;;;;;8.52;2.15;;;;;;;;;;5010234;28;20093;-65
2023/08/26 13:19:20;;;;;;;7.18;1.67;;;;;;;;;;5007946;28;20014;-68
2023/08/26 13:21:45;;;;;;;4.13;1.45;;;;;;;;;;5008130;28;20566;-68
2023/08/26 13:24:10;;;;;;;5.80;1.73;;;;;;;;;;5007294;28;20437;-65
2023/08/26 13:26:35;;;;;;;4.85;1.60;;;;;;;;;;5007832;28;20025;-67
2023/08/26 13:29:01;;;;;;;3.53;1.30;;;;;;;;;;5007274;28;20021;-67
2023/08/26 13:31:26;;;;;;;6.38;1.55;;;;;;;;;;4989926;28;20436;-66
2023/08/26 13:33:51;;;;;;;2.90;1.30;;;;;;;;;;5005697;28;20057;-66
2023/08/26 13:36:17;;;;;;;5.60;1.50;;;;;;;;;;5007538;28;20029;-70
2023/08/26 13:38:42;;;;;;;8.02;2.53;;;;;;;;;;5007370;28;20295;-68
2023/08/26 13:41:07;;;;;;;3.37;1.20;;;;;;;;;;5008008;28;20029;-67
2023/08/26 13:43:33;;;;;;;4.00;1.10;;;;;;;;;;5009336;28;20265;-68
2023/08/26 13:45:58;;;;;;;2.72;1.10;;;;;;;;;;5012849;28;20255;-67
2023/08/26 13:48:23;;;;;;;5.25;1.40;;;;;;;;;;4992953;28;20025;-69
2023/08/26 13:50:48;;;;;;;3.20;1.23;;;;;;;;;;5007794;28;20022;-68
2023/08/26 13:53:13;;;;;;;8.73;1.33;;;;;;;;;;5007839;28;20036;-68
2023/08/26 13:55:39;;;;;;;6.55;1.48;;;;;;;;;;5014112;28;20287;-65
2023/08/26 13:58:04;;;;;;;4.88;1.50;;;;;;;;;;5016439;28;20025;-69
2023/08/26 14:00:29;;;;;;;3.90;1.70;;;;;;;;;;5006851;28;20479;-66
2023/08/26 14:02:54;;;;;;;2.75;1.40;;;;;;;;;;5006426;28;20696;-69
2023/08/26 14:05:20;;;;;;;5.22;1.67;;;;;;;;;;5007264;28;20109;-66
2023/08/26 14:07:45;;;;;;;3.58;1.48;;;;;;;;;;5007918;28;20108;-68
2023/08/26 14:10:10;;;;;;;3.43;1.37;;;;;;;;;;5013825;28;20064;-68
2023/08/26 14:12:38;;;;;;;4.40;1.30;;;;;;;;;;5016581;28;20362;-67
2023/08/26 14:15:05;;;;;;;4.88;1.60;;;;;;;;;;5018654;28;20050;-67
2023/08/26 14:17:30;;;;;;;5.60;1.60;;;;;;;;;;5006235;28;20084;-66
2023/08/26 14:19:55;;;;;;;3.10;1.30;;;;;;;;;;5008986;28;20014;-70
2023/08/26 14:22:21;;;;;;;4.07;1.48;;;;;;;;;;5008457;28;20025;-66
2023/08/26 14:24:48;;;;;;;6.82;1.35;;;;;;;;;;4989422;28;20049;-66
2023/08/26 14:27:15;;;;;;;3.92;1.42;;;;;;;;;;4989124;28;20587;-67
2023/08/26 14:29:40;;;;;;;5.90;1.63;;;;;;;;;;5001901;28;20026;-68
2023/08/26 14:32:06;;;;;;;3.17;1.30;;;;;;;;;;5000574;28;20101;-67
2023/08/26 14:34:31;;;;;;;4.57;1.70;;;;;;;;;;4988526;28;20033;-66